Time;durP1;ratioP1;P1;durP2;ratioP2;P2;SDS_P1;SDS_P2;PMS_P1;PMS_P2;Temp;Humidity;BMP_temperature;BMP_pressure;BME280_temperature;BME280_humidity;BME280_pressure;Samples;Min_cycle;Max_cycle;Signal;HPM_P1;HPM_P2
2022/12/16 00:00:47;;;;;;;124.30;45.70;;;;;;;;;;103228;1310;22463;-79
2022/12/16 00:03:22;;;;;;;126.60;47.10;;;;;;;;;;106674;1308;22086;-75
2022/12/16 00:05:49;;;;;;;123.10;45.90;;;;;;;;;;106725;1307;22318;-75
2022/12/16 00:08:15;;;;;;;130.20;45.80;;;;;;;;;;106715;1310;22931;-75
2022/12/16 00:10:54;;;;;;;135.20;49.50;;;;;;;;;;106724;1310;22485;-75
2022/12/16 00:13:20;;;;;;;130.60;45.90;;;;;;;;;;106689;1310;22064;-75
2022/12/16 00:15:48;;;;;;;127.70;47.80;;;;;;;;;;106826;1310;22814;-75
2022/12/16 00:18:14;;;;;;;129.80;46.40;;;;;;;;;;106852;1308;22868;-76
2022/12/16 00:20:47;;;;;;;132.40;48.60;;;;;;;;;;106839;1305;22121;-75
2022/12/16 00:23:14;;;;;;;122.70;45.40;;;;;;;;;;106632;1308;22074;-75
2022/12/16 00:25:44;;;;;;;120.70;47.00;;;;;;;;;;106685;1310;21930;-75
2022/12/16 00:28:12;;;;;;;121.60;45.40;;;;;;;;;;106629;1310;22180;-75
2022/12/16 00:30:40;;;;;;;128.10;46.20;;;;;;;;;;106612;1310;22700;-76
2022/12/16 00:33:07;;;;;;;126.90;47.40;;;;;;;;;;106924;1295;22092;-75
2022/12/16 00:35:34;;;;;;;120.20;44.50;;;;;;;;;;106735;1310;22054;-75
2022/12/16 00:38:00;;;;;;;118.70;43.70;;;;;;;;;;106823;1310;22078;-75
2022/12/16 00:40:27;;;;;;;125.40;45.30;;;;;;;;;;106861;1308;22095;-75
2022/12/16 00:42:54;;;;;;;126.60;43.50;;;;;;;;;;106786;1310;22059;-75
2022/12/16 00:45:20;;;;;;;127.70;46.90;;;;;;;;;;106706;1310;22896;-75
2022/12/16 00:47:48;;;;;;;126.50;45.60;;;;;;;;;;106684;1310;22069;-75
2022/12/16 00:50:15;;;;;;;122.60;43.60;;;;;;;;;;106981;1299;22088;-75
2022/12/16 00:52:41;;;;;;;116.20;42.20;;;;;;;;;;106916;1301;22058;-75
2022/12/16 00:55:08;;;;;;;127.80;44.70;;;;;;;;;;106671;1310;22687;-76
2022/12/16 00:57:35;;;;;;;128.00;45.50;;;;;;;;;;107031;1301;22008;-75
2022/12/16 01:00:04;;;;;;;115.50;44.40;;;;;;;;;;106649;1309;21909;-75
2022/12/16 01:02:31;;;;;;;121.30;44.90;;;;;;;;;;106700;1310;22089;-75
2022/12/16 01:04:57;;;;;;;119.00;45.20;;;;;;;;;;106635;1310;22091;-75
2022/12/16 01:07:24;;;;;;;109.00;42.00;;;;;;;;;;106715;1309;22110;-75
2022/12/16 01:09:51;;;;;;;109.20;42.40;;;;;;;;;;106642;1310;22076;-75
2022/12/16 01:12:17;;;;;;;118.30;42.60;;;;;;;;;;106780;1306;22254;-75
2022/12/16 01:14:44;;;;;;;112.50;41.00;;;;;;;;;;106680;1308;22097;-75
2022/12/16 01:17:11;;;;;;;116.40;44.10;;;;;;;;;;107123;1304;23035;-75
2022/12/16 01:19:37;;;;;;;118.10;43.50;;;;;;;;;;107094;1304;22083;-74
2022/12/16 01:22:04;;;;;;;112.40;42.60;;;;;;;;;;106956;1305;22059;-75
2022/12/16 01:24:30;;;;;;;124.60;44.10;;;;;;;;;;107012;1304;22129;-75
2022/12/16 01:26:57;;;;;;;117.90;41.80;;;;;;;;;;107309;1299;22041;-75
2022/12/16 01:29:24;;;;;;;117.90;45.40;;;;;;;;;;106954;1295;22074;-75
2022/12/16 01:31:51;;;;;;;113.60;42.20;;;;;;;;;;106982;1306;22081;-74
2022/12/16 01:34:17;;;;;;;116.50;45.10;;;;;;;;;;107018;1306;22073;-74
2022/12/16 01:36:44;;;;;;;113.00;42.90;;;;;;;;;;106986;1305;22094;-74
2022/12/16 01:39:11;;;;;;;129.60;48.10;;;;;;;;;;107294;1282;22055;-74
2022/12/16 01:41:37;;;;;;;109.40;39.70;;;;;;;;;;106966;1301;21960;-75
2022/12/16 01:44:15;;;;;;;125.90;45.90;;;;;;;;;;106944;1306;22112;-74
2022/12/16 01:46:42;;;;;;;110.50;42.00;;;;;;;;;;107216;1298;21944;-74
2022/12/16 01:49:11;;;;;;;102.60;39.60;;;;;;;;;;106922;1306;21936;-75
2022/12/16 01:51:40;;;;;;;114.10;43.00;;;;;;;;;;106986;1302;22068;-75
2022/12/16 01:54:18;;;;;;;119.70;43.80;;;;;;;;;;107198;1288;22047;-75
2022/12/16 01:56:48;;;;;;;117.80;44.20;;;;;;;;;;107021;1307;22058;-74
2022/12/16 01:59:16;;;;;;;121.90;46.60;;;;;;;;;;107196;1297;22057;-75
2022/12/16 02:01:43;;;;;;;113.90;44.00;;;;;;;;;;106903;1307;22739;-74
2022/12/16 02:04:09;;;;;;;116.10;40.40;;;;;;;;;;106895;1306;22567;-75
2022/12/16 02:06:36;;;;;;;120.50;43.20;;;;;;;;;;107247;1281;22129;-74
2022/12/16 02:09:06;;;;;;;116.20;43.80;;;;;;;;;;106941;1305;22101;-74
2022/12/16 02:11:56;;;;;;;116.30;44.50;;;;;;;;;;106903;1306;22852;-74
2022/12/16 02:14:33;;;;;;;125.90;46.40;;;;;;;;;;106896;1306;22204;-75
2022/12/16 02:17:02;;;;;;;113.50;40.70;;;;;;;;;;106949;1307;22061;-74
2022/12/16 02:19:48;;;;;;;119.60;44.90;;;;;;;;;;107064;1305;22149;-75
2022/12/16 02:22:27;;;;;;;135.70;49.50;;;;;;;;;;107046;1307;22124;-74
2022/12/16 02:24:56;;;;;;;138.50;49.00;;;;;;;;;;106902;1304;22088;-74
2022/12/16 02:27:35;;;;;;;151.60;55.30;;;;;;;;;;106955;1306;22065;-75
2022/12/16 02:30:05;;;;;;;133.70;49.80;;;;;;;;;;106951;1299;21939;-74
2022/12/16 02:32:50;;;;;;;133.20;47.70;;;;;;;;;;106945;1298;22709;-74
2022/12/16 02:35:23;;;;;;;156.70;56.30;;;;;;;;;;107237;1281;22051;-74
2022/12/16 02:38:09;;;;;;;132.00;48.90;;;;;;;;;;106761;1307;22071;-74
2022/12/16 02:40:59;;;;;;;136.80;49.20;;;;;;;;;;107058;1306;22088;-74
2022/12/16 02:43:41;;;;;;;118.70;42.40;;;;;;;;;;106933;1283;22110;-75
2022/12/16 02:46:08;;;;;;;96.60;36.10;;;;;;;;;;106935;1305;22059;-75
2022/12/16 02:48:35;;;;;;;114.10;41.20;;;;;;;;;;106905;1306;22043;-74
2022/12/16 02:51:02;;;;;;;101.20;36.90;;;;;;;;;;106906;1306;22088;-74
2022/12/16 02:53:30;;;;;;;119.30;45.50;;;;;;;;;;107084;1299;21992;-75
2022/12/16 02:56:04;;;;;;;101.00;39.10;;;;;;;;;;107129;1295;22039;-74
2022/12/16 02:58:31;;;;;;;110.40;43.20;;;;;;;;;;106927;1305;22930;-74
2022/12/16 03:00:58;;;;;;;84.00;31.30;;;;;;;;;;106922;1306;21934;-74
2022/12/16 03:03:31;;;;;;;101.00;37.60;;;;;;;;;;106934;1307;22063;-75
2022/12/16 03:05:59;;;;;;;91.60;33.80;;;;;;;;;;106813;1306;22035;-75
2022/12/16 03:08:32;;;;;;;107.50;38.30;;;;;;;;;;106894;1306;22066;-75
2022/12/16 03:11:01;;;;;;;106.30;39.20;;;;;;;;;;106942;1306;22048;-74
2022/12/16 03:13:30;;;;;;;113.00;42.60;;;;;;;;;;106929;1306;22033;-74
2022/12/16 03:15:59;;;;;;;93.70;34.50;;;;;;;;;;106760;1301;22105;-75
2022/12/16 03:18:26;;;;;;;103.20;40.00;;;;;;;;;;106927;1307;22666;-75
2022/12/16 03:21:05;;;;;;;114.70;43.20;;;;;;;;;;106982;1305;22063;-74
2022/12/16 03:23:52;;;;;;;106.80;41.20;;;;;;;;;;106927;1305;22043;-75
2022/12/16 03:26:23;;;;;;;104.80;40.10;;;;;;;;;;107126;1283;21943;-75
2022/12/16 03:28:55;;;;;;;114.70;39.60;;;;;;;;;;107187;1299;22033;-75
2022/12/16 03:31:29;;;;;;;104.70;38.50;;;;;;;;;;106910;1306;22050;-75
2022/12/16 03:34:02;;;;;;;84.60;31.90;;;;;;;;;;106746;1306;22067;-75
2022/12/16 03:36:32;;;;;;;99.00;35.70;;;;;;;;;;106790;1307;22052;-75
2022/12/16 03:39:00;;;;;;;111.30;40.60;;;;;;;;;;106968;1305;22017;-75
2022/12/16 03:41:27;;;;;;;111.70;42.50;;;;;;;;;;106924;1307;22097;-75
2022/12/16 03:43:54;;;;;;;107.00;42.80;;;;;;;;;;106949;1300;22091;-74
2022/12/16 03:46:20;;;;;;;107.10;41.30;;;;;;;;;;106930;1306;21946;-74
2022/12/16 03:48:51;;;;;;;115.10;39.20;;;;;;;;;;106899;1306;22088;-74
2022/12/16 03:51:18;;;;;;;103.90;39.10;;;;;;;;;;106757;1306;21961;-74
2022/12/16 03:53:45;;;;;;;97.00;38.30;;;;;;;;;;106759;1307;22088;-75
2022/12/16 03:56:12;;;;;;;104.90;41.00;;;;;;;;;;106878;1306;22103;-74
2022/12/16 03:58:39;;;;;;;96.10;39.00;;;;;;;;;;106754;1303;22121;-75
2022/12/16 04:01:09;;;;;;;82.30;31.60;;;;;;;;;;106779;1307;22093;-76
2022/12/16 04:03:36;;;;;;;110.00;41.50;;;;;;;;;;106766;1307;22123;-75
2022/12/16 04:06:03;;;;;;;106.60;39.80;;;;;;;;;;106918;1306;22088;-75
2022/12/16 04:08:30;;;;;;;114.30;41.70;;;;;;;;;;106714;1307;22150;-75
2022/12/16 04:25:08;;;;;;;101.60;36.30;;;;;;;;;;106962;1307;22064;-75
2022/12/16 04:27:35;;;;;;;87.20;32.20;;;;;;;;;;106924;1305;22080;-74
2022/12/16 04:30:20;;;;;;;91.10;35.00;;;;;;;;;;106855;1294;22086;-75
